CLL3 weather

Lac Lamothe Water Aerodrome
Lac Lamothe, Quebec, Canada

Public forecast

Using degrees Celsius for public forecast. Weather courtesy of forecast.io.

Closest aviation weather report (METAR) to Lac Lamothe Water Aerodrome

Closest report is CFB Bagotville, 25.2 nm (46.6 km) SSE. Retrieved 2020/06/04 14:00 UTC (36 minutes ago):

CYBG 041400Z 28013G18KT 25SM FEW056 BKN100 14/08 A2961 RMK SC2AC6 SLP031

Closest aviation forecast (TAF) to Lac Lamothe Water Aerodrome

Closest forecast is CFB Bagotville, 25.2 nm (46.6 km) SSE. Retrieved 2020/06/04 12:36 UTC (2 hours ago):

TAF TAF CYBG 041130Z 0412/0512 27008KT P6SM BKN040 OVC060 TEMPO 0412/0419 6SM -SHRA BR FM041900 27015G25KT P6SM FEW030 BKN080 FM050000 27015G25KT P6SM SCT080 BECMG 0500/0502 27008KT RMK NXT FCST BY 041800Z